sensor_id;sensor_type;location;lat;lon;timestamp;pressure;altitude;pressure_sealevel;temperature;humidity
30516;BME280;17297;54.022;10.760;2024-03-17T00:00:20;102121.50;;;9.08;57.00
30516;BME280;17297;54.022;10.760;2024-03-17T00:02:46;102127.72;;;9.09;57.03
30516;BME280;17297;54.022;10.760;2024-03-17T00:05:12;102127.72;;;9.09;57.06
30516;BME280;17297;54.022;10.760;2024-03-17T00:07:38;102124.19;;;9.08;57.12
30516;BME280;17297;54.022;10.760;2024-03-17T00:10:04;102132.13;;;9.10;57.09
30516;BME280;17297;54.022;10.760;2024-03-17T00:12:29;102134.94;;;9.08;57.08
30516;BME280;17297;54.022;10.760;2024-03-17T00:14:55;102136.47;;;9.11;57.07
30516;BME280;17297;54.022;10.760;2024-03-17T00:17:20;102131.13;;;9.11;57.17
30516;BME280;17297;54.022;10.760;2024-03-17T00:19:46;102140.00;;;9.11;56.94
30516;BME280;17297;54.022;10.760;2024-03-17T00:22:12;102136.47;;;9.11;57.05
30516;BME280;17297;54.022;10.760;2024-03-17T00:24:40;102134.81;;;9.10;56.92
30516;BME280;17297;54.022;10.760;2024-03-17T00:27:05;102140.16;;;9.10;57.05
30516;BME280;17297;54.022;10.760;2024-03-17T00:29:31;102151.03;;;9.08;56.98
30516;BME280;17297;54.022;10.760;2024-03-17T00:31:56;102147.66;;;9.06;57.02
30516;BME280;17297;54.022;10.760;2024-03-17T00:34:22;102156.72;;;9.05;56.91
30516;BME280;17297;54.022;10.760;2024-03-17T00:36:47;102159.69;;;9.02;56.87
30516;BME280;17297;54.022;10.760;2024-03-17T00:39:13;102166.91;;;9.01;56.98
30516;BME280;17297;54.022;10.760;2024-03-17T00:41:39;102158.84;;;9.01;57.08
30516;BME280;17297;54.022;10.760;2024-03-17T00:44:05;102158.84;;;9.01;56.89
30516;BME280;17297;54.022;10.760;2024-03-17T00:46:31;102164.22;;;9.01;56.74
30516;BME280;17297;54.022;10.760;2024-03-17T00:48:58;102164.22;;;9.01;56.90
30516;BME280;17297;54.022;10.760;2024-03-17T00:51:23;102163.38;;;9.01;57.00
30516;BME280;17297;54.022;10.760;2024-03-17T00:53:49;102169.72;;;9.00;56.81
30516;BME280;17297;54.022;10.760;2024-03-17T00:56:14;102169.03;;;8.98;57.09
30516;BME280;17297;54.022;10.760;2024-03-17T00:58:39;102165.34;;;8.99;56.97
30516;BME280;17297;54.022;10.760;2024-03-17T01:01:05;102171.00;;;8.96;56.80
30516;BME280;17297;54.022;10.760;2024-03-17T01:03:30;102178.38;;;8.94;56.88
30516;BME280;17297;54.022;10.760;2024-03-17T01:05:56;102179.53;;;8.91;56.89
30516;BME280;17297;54.022;10.760;2024-03-17T01:08:21;102188.72;;;8.89;56.69
30516;BME280;17297;54.022;10.760;2024-03-17T01:10:49;102178.28;;;8.86;56.89
30516;BME280;17297;54.022;10.760;2024-03-17T01:13:17;102181.25;;;8.83;56.80
30516;BME280;17297;54.022;10.760;2024-03-17T01:15:43;102184.22;;;8.79;57.00
30516;BME280;17297;54.022;10.760;2024-03-17T01:18:09;102188.03;;;8.77;56.90
30516;BME280;17297;54.022;10.760;2024-03-17T01:20:35;102184.81;;;8.73;56.91
30516;BME280;17297;54.022;10.760;2024-03-17T01:23:02;102184.94;;;8.72;57.12
30516;BME280;17297;54.022;10.760;2024-03-17T01:25:28;102182.41;;;8.70;56.96
30516;BME280;17297;54.022;10.760;2024-03-17T01:27:55;102176.50;;;8.67;56.98
30516;BME280;17297;54.022;10.760;2024-03-17T01:30:21;102169.59;;;8.64;56.96
30516;BME280;17297;54.022;10.760;2024-03-17T01:32:46;102176.06;;;8.62;57.08
30516;BME280;17297;54.022;10.760;2024-03-17T01:35:12;102176.38;;;8.59;57.08
30516;BME280;17297;54.022;10.760;2024-03-17T01:37:38;102181.03;;;8.56;57.30
30516;BME280;17297;54.022;10.760;2024-03-17T01:40:04;102182.03;;;8.55;57.34
30516;BME280;17297;54.022;10.760;2024-03-17T01:42:39;102185.00;;;8.52;57.14
30516;BME280;17297;54.022;10.760;2024-03-17T01:47:42;102183.59;;;8.48;57.14
30516;BME280;17297;54.022;10.760;2024-03-17T01:50:08;102183.88;;;8.45;57.29
30516;BME280;17297;54.022;10.760;2024-03-17T01:52:35;102178.66;;;8.44;57.37
30516;BME280;17297;54.022;10.760;2024-03-17T01:55:02;102185.19;;;8.41;57.30
30516;BME280;17297;54.022;10.760;2024-03-17T01:57:28;102184.47;;;8.39;57.24
30516;BME280;17297;54.022;10.760;2024-03-17T01:59:54;102182.03;;;8.36;57.29
30516;BME280;17297;54.022;10.760;2024-03-17T02:02:19;102181.31;;;8.34;57.34
30516;BME280;17297;54.022;10.760;2024-03-17T02:04:45;102183.31;;;8.32;57.37
30516;BME280;17297;54.022;10.760;2024-03-17T02:07:11;102193.34;;;8.30;57.26
30516;BME280;17297;54.022;10.760;2024-03-17T02:09:36;102182.91;;;8.27;57.47
30516;BME280;17297;54.022;10.760;2024-03-17T02:12:01;102186.69;;;8.24;57.36
30516;BME280;17297;54.022;10.760;2024-03-17T02:14:27;102187.69;;;8.23;57.52
30516;BME280;17297;54.022;10.760;2024-03-17T02:16:53;102187.97;;;8.20;57.56
30516;BME280;17297;54.022;10.760;2024-03-17T02:19:18;102186.44;;;8.18;57.49
30516;BME280;17297;54.022;10.760;2024-03-17T02:21:43;102189.25;;;8.16;57.57
30516;BME280;17297;54.022;10.760;2024-03-17T02:24:09;102197.44;;;8.15;57.62
30516;BME280;17297;54.022;10.760;2024-03-17T02:26:34;102195.75;;;8.14;57.60
30516;BME280;17297;54.022;10.760;2024-03-17T02:29:00;102191.63;;;8.09;57.67
30516;BME280;17297;54.022;10.760;2024-03-17T02:31:26;102183.75;;;8.08;57.71
30516;BME280;17297;54.022;10.760;2024-03-17T02:33:51;102185.72;;;8.06;57.56
30516;BME280;17297;54.022;10.760;2024-03-17T02:36:16;102189.41;;;8.05;57.67
30516;BME280;17297;54.022;10.760;2024-03-17T02:38:42;102189.69;;;8.02;57.68
30516;BME280;17297;54.022;10.760;2024-03-17T02:41:27;102192.47;;;8.00;57.72
30516;BME280;17297;54.022;10.760;2024-03-17T02:43:53;102199.84;;;7.98;57.77
30516;BME280;17297;54.022;10.760;2024-03-17T02:46:19;102196.31;;;7.98;57.67
30516;BME280;17297;54.022;10.760;2024-03-17T02:48:47;102201.97;;;7.95;57.84
30516;BME280;17297;54.022;10.760;2024-03-17T02:51:14;102204.75;;;7.93;57.81
30516;BME280;17297;54.022;10.760;2024-03-17T02:53:43;102206.59;;;7.93;57.69
30516;BME280;17297;54.022;10.760;2024-03-17T02:56:13;102205.19;;;7.89;57.86
30516;BME280;17297;54.022;10.760;2024-03-17T02:58:40;102208.00;;;7.87;57.88
30516;BME280;17297;54.022;10.760;2024-03-17T03:01:07;102217.03;;;7.86;57.83
30516;BME280;17297;54.022;10.760;2024-03-17T03:03:33;102215.47;;;7.83;57.79
30516;BME280;17297;54.022;10.760;2024-03-17T03:05:59;102215.75;;;7.80;57.99
30516;BME280;17297;54.022;10.760;2024-03-17T03:08:32;102215.03;;;7.78;58.01
30516;BME280;17297;54.022;10.760;2024-03-17T03:10:59;102221.25;;;7.79;58.09
30516;BME280;17297;54.022;10.760;2024-03-17T03:13:24;102213.34;;;7.77;57.99
30516;BME280;17297;54.022;10.760;2024-03-17T03:15:50;102209.94;;;7.75;57.96
30516;BME280;17297;54.022;10.760;2024-03-17T03:18:15;102216.47;;;7.73;58.03
30516;BME280;17297;54.022;10.760;2024-03-17T03:20:40;102213.06;;;7.71;57.90
30516;BME280;17297;54.022;10.760;2024-03-17T03:23:06;102211.50;;;7.68;57.92
30516;BME280;17297;54.022;10.760;2024-03-17T03:25:31;102217.00;;;7.67;57.97
30516;BME280;17297;54.022;10.760;2024-03-17T03:27:57;102211.78;;;7.65;57.96
30516;BME280;17297;54.022;10.760;2024-03-17T03:30:23;102222.66;;;7.63;58.16
30516;BME280;17297;54.022;10.760;2024-03-17T03:32:48;102221.94;;;7.61;58.09
30516;BME280;17297;54.022;10.760;2024-03-17T03:35:14;102221.19;;;7.59;58.04
30516;BME280;17297;54.022;10.760;2024-03-17T03:37:42;102220.50;;;7.57;58.19
30516;BME280;17297;54.022;10.760;2024-03-17T03:40:08;102216.97;;;7.57;58.09
30516;BME280;17297;54.022;10.760;2024-03-17T03:42:45;102224.16;;;7.56;58.19
30516;BME280;17297;54.022;10.760;2024-03-17T03:45:10;102232.34;;;7.55;58.13
30516;BME280;17297;54.022;10.760;2024-03-17T03:47:42;102227.94;;;7.54;58.32
30516;BME280;17297;54.022;10.760;2024-03-17T03:50:11;102234.28;;;7.53;58.19
30516;BME280;17297;54.022;10.760;2024-03-17T03:52:37;102237.13;;;7.51;58.18
30516;BME280;17297;54.022;10.760;2024-03-17T03:55:07;102238.09;;;7.50;58.37
30516;BME280;17297;54.022;10.760;2024-03-17T03:57:35;102239.94;;;7.50;58.37
30516;BME280;17297;54.022;10.760;2024-03-17T04:00:05;102248.13;;;7.48;58.47
30516;BME280;17297;54.022;10.760;2024-03-17T04:02:38;102254.44;;;7.47;58.32
30516;BME280;17297;54.022;10.760;2024-03-17T04:05:04;102257.09;;;7.47;58.36
30516;BME280;17297;54.022;10.760;2024-03-17T04:07:29;102252.03;;;7.44;58.22
30516;BME280;17297;54.022;10.760;2024-03-17T04:09:55;102245.81;;;7.44;58.27
30516;BME280;17297;54.022;10.760;2024-03-17T04:12:20;102256.53;;;7.44;58.46
30516;BME280;17297;54.022;10.760;2024-03-17T04:14:45;102251.34;;;7.42;58.46
30516;BME280;17297;54.022;10.760;2024-03-17T04:17:12;102255.13;;;7.39;58.44
30516;BME280;17297;54.022;10.760;2024-03-17T04:19:37;102251.72;;;7.37;58.44
30516;BME280;17297;54.022;10.760;2024-03-17T04:22:02;102254.56;;;7.36;58.48
30516;BME280;17297;54.022;10.760;2024-03-17T04:24:28;102252.84;;;7.35;58.51
30516;BME280;17297;54.022;10.760;2024-03-17T04:26:53;102257.50;;;7.33;58.38
30516;BME280;17297;54.022;10.760;2024-03-17T04:29:18;102247.75;;;7.32;58.49
30516;BME280;17297;54.022;10.760;2024-03-17T04:31:45;102251.56;;;7.29;58.39
30516;BME280;17297;54.022;10.760;2024-03-17T04:34:14;102238.19;;;7.29;58.55
30516;BME280;17297;54.022;10.760;2024-03-17T04:36:40;102237.47;;;7.27;58.60
30516;BME280;17297;54.022;10.760;2024-03-17T04:39:05;102233.94;;;7.27;58.40
30516;BME280;17297;54.022;10.760;2024-03-17T04:41:33;102237.72;;;7.24;58.65
30516;BME280;17297;54.022;10.760;2024-03-17T04:43:58;102239.56;;;7.24;58.54
30516;BME280;17297;54.022;10.760;2024-03-17T04:46:24;102246.88;;;7.22;58.61
30516;BME280;17297;54.022;10.760;2024-03-17T04:48:49;102242.63;;;7.19;58.63
30516;BME280;17297;54.022;10.760;2024-03-17T04:51:16;102252.66;;;7.17;58.56
30516;BME280;17297;54.022;10.760;2024-03-17T04:53:41;102250.22;;;7.14;58.64
30516;BME280;17297;54.022;10.760;2024-03-17T04:56:06;102250.34;;;7.12;58.65
30516;BME280;17297;54.022;10.760;2024-03-17T04:58:33;102258.53;;;7.11;58.56
30516;BME280;17297;54.022;10.760;2024-03-17T05:01:06;102265.00;;;7.08;58.83
30516;BME280;17297;54.022;10.760;2024-03-17T05:03:32;102263.31;;;7.07;58.64
30516;BME280;17297;54.022;10.760;2024-03-17T05:06:02;102260.75;;;7.06;58.65
30516;BME280;17297;54.022;10.760;2024-03-17T05:08:28;102268.94;;;7.04;58.75
30516;BME280;17297;54.022;10.760;2024-03-17T05:11:01;102271.72;;;7.03;58.73
30516;BME280;17297;54.022;10.760;2024-03-17T05:13:30;102273.66;;;7.01;58.63
30516;BME280;17297;54.022;10.760;2024-03-17T05:15:56;102279.16;;;6.99;58.83
30516;BME280;17297;54.022;10.760;2024-03-17T05:18:21;102287.31;;;6.98;58.66
30516;BME280;17297;54.022;10.760;2024-03-17T05:20:57;102285.63;;;6.97;59.09
30516;BME280;17297;54.022;10.760;2024-03-17T05:23:24;102289.88;;;6.99;58.66
30516;BME280;17297;54.022;10.760;2024-03-17T05:25:52;102299.16;;;6.95;58.65
30516;BME280;17297;54.022;10.760;2024-03-17T05:28:18;102300.94;;;6.94;58.85
30516;BME280;17297;54.022;10.760;2024-03-17T05:30:43;102300.00;;;6.96;58.76
30516;BME280;17297;54.022;10.760;2024-03-17T05:33:09;102293.66;;;6.97;58.73
30516;BME280;17297;54.022;10.760;2024-03-17T05:35:35;102296.06;;;7.00;58.98
30516;BME280;17297;54.022;10.760;2024-03-17T05:38:00;102302.25;;;7.00;58.92
30516;BME280;17297;54.022;10.760;2024-03-17T05:40:25;102312.84;;;7.02;58.77
30516;BME280;17297;54.022;10.760;2024-03-17T05:42:51;102322.56;;;7.03;58.89
30516;BME280;17297;54.022;10.760;2024-03-17T05:45:17;102317.09;;;7.04;58.77
30516;BME280;17297;54.022;10.760;2024-03-17T05:47:42;102324.84;;;7.07;58.92
30516;BME280;17297;54.022;10.760;2024-03-17T05:50:08;102328.94;;;7.11;58.75
30516;BME280;17297;54.022;10.760;2024-03-17T05:52:34;102330.84;;;7.21;59.00
30516;BME280;17297;54.022;10.760;2024-03-17T05:55:00;102330.22;;;7.38;59.07
30516;BME280;17297;54.022;10.760;2024-03-17T05:57:25;102337.09;;;7.61;59.17
30516;BME280;17297;54.022;10.760;2024-03-17T05:59:51;102330.97;;;7.90;58.91
30516;BME280;17297;54.022;10.760;2024-03-17T06:02:16;102330.06;;;8.20;58.82
30516;BME280;17297;54.022;10.760;2024-03-17T06:04:44;102333.34;;;8.43;58.76
30516;BME280;17297;54.022;10.760;2024-03-17T06:07:09;102347.06;;;8.69;58.43
30516;BME280;17297;54.022;10.760;2024-03-17T06:09:34;102347.03;;;8.98;58.29
30516;BME280;17297;54.022;10.760;2024-03-17T06:12:00;102349.09;;;9.24;58.18
30516;BME280;17297;54.022;10.760;2024-03-17T06:14:25;102353.81;;;9.49;57.85
30516;BME280;17297;54.022;10.760;2024-03-17T06:16:51;102356.16;;;9.72;57.67
30516;BME280;17297;54.022;10.760;2024-03-17T06:19:16;102356.44;;;9.97;57.49
30516;BME280;17297;54.022;10.760;2024-03-17T06:21:41;102358.44;;;10.22;57.29
30516;BME280;17297;54.022;10.760;2024-03-17T06:24:07;102352.47;;;10.46;57.18
30516;BME280;17297;54.022;10.760;2024-03-17T06:26:32;102348.88;;;10.73;56.85
30516;BME280;17297;54.022;10.760;2024-03-17T06:29:00;102350.06;;;10.97;56.74
30516;BME280;17297;54.022;10.760;2024-03-17T06:31:25;102347.78;;;11.28;56.47
30516;BME280;17297;54.022;10.760;2024-03-17T06:33:51;102350.69;;;11.69;56.27
30516;BME280;17297;54.022;10.760;2024-03-17T06:36:16;102354.31;;;11.86;55.86
30516;BME280;17297;54.022;10.760;2024-03-17T06:38:42;102358.78;;;12.11;55.50
30516;BME280;17297;54.022;10.760;2024-03-17T06:41:09;102361.06;;;12.48;55.11
30516;BME280;17297;54.022;10.760;2024-03-17T06:43:34;102365.00;;;12.87;54.97
30516;BME280;17297;54.022;10.760;2024-03-17T06:46:00;102371.38;;;13.18;54.37
30516;BME280;17297;54.022;10.760;2024-03-17T06:48:27;102364.06;;;13.52;54.15
30516;BME280;17297;54.022;10.760;2024-03-17T06:50:53;102373.41;;;13.89;53.75
30516;BME280;17297;54.022;10.760;2024-03-17T06:53:23;102366.97;;;14.29;53.36
30516;BME280;17297;54.022;10.760;2024-03-17T06:55:53;102361.84;;;14.65;52.86
30516;BME280;17297;54.022;10.760;2024-03-17T06:58:18;102370.31;;;15.08;52.54
30516;BME280;17297;54.022;10.760;2024-03-17T07:00:58;102376.09;;;15.58;51.94
30516;BME280;17297;54.022;10.760;2024-03-17T07:03:25;102363.13;;;16.04;51.47
30516;BME280;17297;54.022;10.760;2024-03-17T07:05:52;102378.34;;;16.56;50.78
30516;BME280;17297;54.022;10.760;2024-03-17T07:08:18;102376.50;;;17.00;50.41
30516;BME280;17297;54.022;10.760;2024-03-17T07:11:01;102378.41;;;17.27;49.63
30516;BME280;17297;54.022;10.760;2024-03-17T07:13:29;102374.97;;;17.47;49.12
30516;BME280;17297;54.022;10.760;2024-03-17T07:15:55;102377.00;;;17.66;48.91
30516;BME280;17297;54.022;10.760;2024-03-17T07:18:20;102384.19;;;17.81;48.42
30516;BME280;17297;54.022;10.760;2024-03-17T07:20:46;102375.03;;;17.88;47.66
30516;BME280;17297;54.022;10.760;2024-03-17T07:23:14;102380.16;;;17.70;47.55
30516;BME280;17297;54.022;10.760;2024-03-17T07:25:39;102376.50;;;17.56;47.63
30516;BME280;17297;54.022;10.760;2024-03-17T07:28:05;102370.44;;;17.54;47.40
30516;BME280;17297;54.022;10.760;2024-03-17T07:30:30;102376.31;;;17.58;47.29
30516;BME280;17297;54.022;10.760;2024-03-17T07:32:56;102381.97;;;17.63;46.69
30516;BME280;17297;54.022;10.760;2024-03-17T07:35:21;102385.94;;;17.60;45.82
30516;BME280;17297;54.022;10.760;2024-03-17T07:37:46;102396.22;;;17.65;45.97
30516;BME280;17297;54.022;10.760;2024-03-17T07:40:12;102399.59;;;17.67;45.53
30516;BME280;17297;54.022;10.760;2024-03-17T07:42:37;102388.22;;;17.57;45.32
30516;BME280;17297;54.022;10.760;2024-03-17T07:45:03;102395.09;;;17.24;45.04
30516;BME280;17297;54.022;10.760;2024-03-17T07:47:29;102394.81;;;16.91;45.15
30516;BME280;17297;54.022;10.760;2024-03-17T07:50:04;102397.53;;;16.33;45.39
30516;BME280;17297;54.022;10.760;2024-03-17T07:52:31;102403.22;;;15.73;45.75
30516;BME280;17297;54.022;10.760;2024-03-17T07:54:57;102405.34;;;15.10;46.17
30516;BME280;17297;54.022;10.760;2024-03-17T07:57:22;102412.03;;;14.45;46.31
30516;BME280;17297;54.022;10.760;2024-03-17T07:59:50;102415.19;;;13.86;46.70
30516;BME280;17297;54.022;10.760;2024-03-17T08:02:18;102415.66;;;13.34;46.92
30516;BME280;17297;54.022;10.760;2024-03-17T08:04:44;102412.78;;;13.03;47.31
30516;BME280;17297;54.022;10.760;2024-03-17T08:07:12;102411.72;;;12.63;47.41
30516;BME280;17297;54.022;10.760;2024-03-17T08:09:37;102425.63;;;12.25;47.61
30516;BME280;17297;54.022;10.760;2024-03-17T08:12:02;102420.25;;;11.91;48.00
30516;BME280;17297;54.022;10.760;2024-03-17T08:14:30;102429.84;;;11.68;48.53
30516;BME280;17297;54.022;10.760;2024-03-17T08:16:55;102425.69;;;11.47;48.70
30516;BME280;17297;54.022;10.760;2024-03-17T08:19:21;102426.88;;;11.27;48.74
30516;BME280;17297;54.022;10.760;2024-03-17T08:21:46;102421.84;;;11.06;48.85
30516;BME280;17297;54.022;10.760;2024-03-17T08:24:11;102421.47;;;10.83;49.24
30516;BME280;17297;54.022;10.760;2024-03-17T08:26:38;102423.78;;;10.60;49.01
30516;BME280;17297;54.022;10.760;2024-03-17T08:29:05;102423.91;;;10.40;49.43
30516;BME280;17297;54.022;10.760;2024-03-17T08:31:31;102423.66;;;10.24;49.46
30516;BME280;17297;54.022;10.760;2024-03-17T08:33:57;102427.00;;;10.08;49.73
30516;BME280;17297;54.022;10.760;2024-03-17T08:36:22;102432.00;;;9.93;49.98
30516;BME280;17297;54.022;10.760;2024-03-17T08:38:48;102442.00;;;9.74;50.40
30516;BME280;17297;54.022;10.760;2024-03-17T08:41:13;102438.06;;;9.58;50.56
30516;BME280;17297;54.022;10.760;2024-03-17T08:43:39;102434.31;;;9.41;50.61
30516;BME280;17297;54.022;10.760;2024-03-17T08:46:10;102425.56;;;9.30;51.09
30516;BME280;17297;54.022;10.760;2024-03-17T08:48:40;102433.47;;;9.21;51.28
30516;BME280;17297;54.022;10.760;2024-03-17T08:51:07;102437.72;;;9.14;51.24
30516;BME280;17297;54.022;10.760;2024-03-17T08:53:33;102441.25;;;9.05;51.38
30516;BME280;17297;54.022;10.760;2024-03-17T08:55:59;102437.31;;;8.99;51.62
30516;BME280;17297;54.022;10.760;2024-03-17T08:58:25;102438.44;;;8.97;51.49
30516;BME280;17297;54.022;10.760;2024-03-17T09:00:51;102436.03;;;8.94;51.50
30516;BME280;17297;54.022;10.760;2024-03-17T09:03:17;102432.66;;;8.92;51.50
30516;BME280;17297;54.022;10.760;2024-03-17T09:05:47;102429.97;;;8.92;51.35
30516;BME280;17297;54.022;10.760;2024-03-17T09:08:19;102435.06;;;8.95;51.57
30516;BME280;17297;54.022;10.760;2024-03-17T09:10:46;102434.22;;;8.94;51.66
30516;BME280;17297;54.022;10.760;2024-03-17T09:13:13;102440.44;;;8.95;51.64
30516;BME280;17297;54.022;10.760;2024-03-17T09:15:40;102443.78;;;8.97;51.31
30516;BME280;17297;54.022;10.760;2024-03-17T09:18:05;102441.38;;;8.94;51.41
30516;BME280;17297;54.022;10.760;2024-03-17T09:20:31;102439.97;;;8.90;51.46
30516;BME280;17297;54.022;10.760;2024-03-17T09:22:56;102435.06;;;8.85;51.50
30516;BME280;17297;54.022;10.760;2024-03-17T09:25:21;102443.50;;;8.81;51.62
30516;BME280;17297;54.022;10.760;2024-03-17T09:27:47;102437.59;;;8.77;51.62
30516;BME280;17297;54.022;10.760;2024-03-17T09:30:12;102454.97;;;8.73;51.61
30516;BME280;17297;54.022;10.760;2024-03-17T09:32:38;102452.69;;;8.68;51.30
30516;BME280;17297;54.022;10.760;2024-03-17T09:35:04;102448.44;;;8.66;51.82
30516;BME280;17297;54.022;10.760;2024-03-17T09:37:31;102451.13;;;8.66;51.78
30516;BME280;17297;54.022;10.760;2024-03-17T09:40:00;102447.59;;;8.65;51.96
30516;BME280;17297;54.022;10.760;2024-03-17T09:42:26;102449.31;;;8.66;52.09
30516;BME280;17297;54.022;10.760;2024-03-17T09:44:53;102450.53;;;8.62;51.89
30516;BME280;17297;54.022;10.760;2024-03-17T09:47:23;102452.09;;;8.55;52.15
30516;BME280;17297;54.022;10.760;2024-03-17T09:49:51;102442.75;;;8.49;52.41
30516;BME280;17297;54.022;10.760;2024-03-17T09:52:21;102446.56;;;8.47;52.79
30516;BME280;17297;54.022;10.760;2024-03-17T09:54:51;102446.72;;;8.45;52.83
30516;BME280;17297;54.022;10.760;2024-03-17T09:57:21;102444.03;;;8.45;53.03
30516;BME280;17297;54.022;10.760;2024-03-17T09:59:53;102446.16;;;8.42;52.89
30516;BME280;17297;54.022;10.760;2024-03-17T10:02:19;102444.59;;;8.39;53.20
30516;BME280;17297;54.022;10.760;2024-03-17T10:04:45;102444.53;;;8.29;53.27
30516;BME280;17297;54.022;10.760;2024-03-17T10:07:10;102449.31;;;8.26;53.38
30516;BME280;17297;54.022;10.760;2024-03-17T10:09:36;102452.53;;;8.20;53.42
30516;BME280;17297;54.022;10.760;2024-03-17T10:12:02;102451.66;;;8.19;53.57
30516;BME280;17297;54.022;10.760;2024-03-17T10:14:28;102463.13;;;8.21;53.81
30516;BME280;17297;54.022;10.760;2024-03-17T10:16:53;102457.34;;;8.26;54.11
30516;BME280;17297;54.022;10.760;2024-03-17T10:19:23;102458.91;;;8.28;53.98
30516;BME280;17297;54.022;10.760;2024-03-17T10:21:50;102454.41;;;8.29;54.11
30516;BME280;17297;54.022;10.760;2024-03-17T10:24:26;102464.88;;;8.32;53.95
30516;BME280;17297;54.022;10.760;2024-03-17T10:26:55;102464.00;;;8.31;54.25
30516;BME280;17297;54.022;10.760;2024-03-17T10:29:27;102468.22;;;8.34;54.36
30516;BME280;17297;54.022;10.760;2024-03-17T10:31:56;102470.78;;;8.36;54.08
30516;BME280;17297;54.022;10.760;2024-03-17T10:34:23;102471.75;;;8.34;54.49
30516;BME280;17297;54.022;10.760;2024-03-17T10:36:52;102475.16;;;8.37;54.32
30516;BME280;17297;54.022;10.760;2024-03-17T10:39:30;102484.91;;;8.38;54.47
30516;BME280;17297;54.022;10.760;2024-03-17T10:42:06;102485.81;;;8.38;54.16
30516;BME280;17297;54.022;10.760;2024-03-17T10:44:33;102486.88;;;8.36;54.19
30516;BME280;17297;54.022;10.760;2024-03-17T10:47:00;102491.41;;;8.35;54.18
30516;BME280;17297;54.022;10.760;2024-03-17T10:49:31;102485.31;;;8.33;54.27
30516;BME280;17297;54.022;10.760;2024-03-17T10:52:11;102493.47;;;8.31;54.21
30516;BME280;17297;54.022;10.760;2024-03-17T10:54:40;102490.22;;;8.28;54.20
30516;BME280;17297;54.022;10.760;2024-03-17T10:59:56;102493.63;;;8.30;54.65
30516;BME280;17297;54.022;10.760;2024-03-17T11:02:23;102497.16;;;8.30;54.73
30516;BME280;17297;54.022;10.760;2024-03-17T11:04:51;102499.00;;;8.30;54.60
30516;BME280;17297;54.022;10.760;2024-03-17T11:07:18;102498.00;;;8.31;54.72
30516;BME280;17297;54.022;10.760;2024-03-17T11:09:45;102490.69;;;8.33;54.80
30516;BME280;17297;54.022;10.760;2024-03-17T11:17:44;102489.69;;;8.34;54.63
30516;BME280;17297;54.022;10.760;2024-03-17T11:20:14;102490.81;;;8.31;54.70
30516;BME280;17297;54.022;10.760;2024-03-17T11:22:44;102486.44;;;8.30;54.77
30516;BME280;17297;54.022;10.760;2024-03-17T11:27:51;102483.91;;;8.29;54.67
30516;BME280;17297;54.022;10.760;2024-03-17T11:30:55;102485.84;;;8.27;54.95
30516;BME280;17297;54.022;10.760;2024-03-17T11:38:52;102486.53;;;8.19;55.03
30516;BME280;17297;54.022;10.760;2024-03-17T11:46:38;102487.25;;;8.21;54.91
30516;BME280;17297;54.022;10.760;2024-03-17T11:49:04;102486.25;;;8.22;54.84
30516;BME280;17297;54.022;10.760;2024-03-17T11:51:29;102493.31;;;8.23;54.82
30516;BME280;17297;54.022;10.760;2024-03-17T11:53:58;102485.28;;;8.23;54.97
30516;BME280;17297;54.022;10.760;2024-03-17T11:56:24;102495.59;;;8.28;55.09
30516;BME280;17297;54.022;10.760;2024-03-17T11:59:04;102488.28;;;8.30;54.94
30516;BME280;17297;54.022;10.760;2024-03-17T12:01:30;102485.97;;;8.25;54.52
30516;BME280;17297;54.022;10.760;2024-03-17T12:03:55;102492.34;;;8.24;54.73
30516;BME280;17297;54.022;10.760;2024-03-17T12:06:23;102493.31;;;8.23;54.80
30516;BME280;17297;54.022;10.760;2024-03-17T12:08:49;102489.66;;;8.24;54.59
30516;BME280;17297;54.022;10.760;2024-03-17T12:11:17;102493.06;;;8.26;54.86
30516;BME280;17297;54.022;10.760;2024-03-17T12:13:43;102485.84;;;8.27;55.07
30516;BME280;17297;54.022;10.760;2024-03-17T12:16:12;102485.28;;;8.23;54.57
30516;BME280;17297;54.022;10.760;2024-03-17T12:18:38;102478.91;;;8.15;54.38
30516;BME280;17297;54.022;10.760;2024-03-17T12:21:12;102479.03;;;8.13;54.70
30516;BME280;17297;54.022;10.760;2024-03-17T12:23:39;102476.38;;;8.13;54.85
30516;BME280;17297;54.022;10.760;2024-03-17T12:26:05;102471.69;;;8.15;54.85
30516;BME280;17297;54.022;10.760;2024-03-17T12:28:30;102472.28;;;8.19;54.80
30516;BME280;17297;54.022;10.760;2024-03-17T12:30:56;102472.28;;;8.19;54.70
30516;BME280;17297;54.022;10.760;2024-03-17T12:33:24;102476.22;;;8.15;54.71
30516;BME280;17297;54.022;10.760;2024-03-17T12:35:50;102463.22;;;8.10;54.63
30516;BME280;17297;54.022;10.760;2024-03-17T12:38:21;102472.50;;;8.06;54.72
30516;BME280;17297;54.022;10.760;2024-03-17T12:40:47;102467.41;;;8.03;54.93
30516;BME280;17297;54.022;10.760;2024-03-17T12:43:13;102464.03;;;8.01;54.82
30516;BME280;17297;54.022;10.760;2024-03-17T12:45:38;102465.72;;;8.02;54.88
30516;BME280;17297;54.022;10.760;2024-03-17T12:48:10;102468.53;;;8.00;54.99
30516;BME280;17297;54.022;10.760;2024-03-17T12:50:44;102470.78;;;7.95;55.18
30516;BME280;17297;54.022;10.760;2024-03-17T12:53:15;102462.00;;;7.93;55.30
30516;BME280;17297;54.022;10.760;2024-03-17T12:55:42;102475.41;;;7.93;55.09
30516;BME280;17297;54.022;10.760;2024-03-17T12:58:26;102461.56;;;7.88;55.21
30516;BME280;17297;54.022;10.760;2024-03-17T13:01:12;102468.16;;;7.84;55.12
30516;BME280;17297;54.022;10.760;2024-03-17T13:03:38;102461.13;;;7.83;55.07
30516;BME280;17297;54.022;10.760;2024-03-17T13:06:05;102464.19;;;7.78;55.26
30516;BME280;17297;54.022;10.760;2024-03-17T13:08:32;102458.81;;;7.78;55.31
30516;BME280;17297;54.022;10.760;2024-03-17T13:10:58;102451.78;;;7.77;55.58